createdAt,value
2022-10-08T00:00:47.148Z,11.10
2022-10-08T00:05:47.003Z,11.07
2022-10-08T00:10:46.932Z,11.13
2022-10-08T00:15:46.940Z,11.21
2022-10-08T00:20:46.807Z,11.17
2022-10-08T00:25:46.749Z,11.25
2022-10-08T00:30:46.645Z,11.29
2022-10-08T00:35:46.586Z,11.46
2022-10-08T00:40:46.519Z,11.57
2022-10-08T00:45:46.518Z,11.68
2022-10-08T00:50:46.686Z,11.71
2022-10-08T00:55:46.313Z,11.80
2022-10-08T01:00:46.328Z,11.78
2022-10-08T01:05:46.187Z,11.80
2022-10-08T01:10:46.120Z,11.77
2022-10-08T01:15:46.056Z,11.80
2022-10-08T01:20:46.090Z,11.71
2022-10-08T01:25:45.935Z,11.72
2022-10-08T01:30:45.847Z,11.83
2022-10-08T01:35:45.804Z,11.97
2022-10-08T01:40:45.726Z,12.04
2022-10-08T01:45:45.692Z,12.09
2022-10-08T01:50:45.609Z,12.09
2022-10-08T01:55:45.544Z,12.16
2022-10-08T02:00:45.546Z,12.23
2022-10-08T02:05:45.406Z,12.27
2022-10-08T02:10:45.353Z,12.33
2022-10-08T02:15:45.303Z,12.39
2022-10-08T02:20:45.206Z,12.41
2022-10-08T02:25:45.191Z,12.44
2022-10-08T02:30:45.068Z,12.45
2022-10-08T02:35:44.998Z,12.52
2022-10-08T02:40:44.936Z,12.44
2022-10-08T02:45:44.895Z,12.41
2022-10-08T02:50:51.853Z,12.42
2022-10-08T02:55:44.732Z,12.51
2022-10-08T03:00:44.702Z,12.52
2022-10-08T03:05:44.603Z,12.63
2022-10-08T03:10:44.563Z,12.70
2022-10-08T03:15:44.504Z,12.75
2022-10-08T03:20:44.411Z,12.78
2022-10-08T03:25:44.382Z,12.81
2022-10-08T03:30:44.358Z,12.89
2022-10-08T03:35:44.216Z,12.89
2022-10-08T03:40:44.155Z,12.85
2022-10-08T03:45:44.133Z,12.93
2022-10-08T03:50:44.038Z,13.00
2022-10-08T03:55:43.963Z,13.11
2022-10-08T04:00:43.903Z,13.21
2022-10-08T04:05:43.830Z,13.17
2022-10-08T04:10:43.774Z,13.29
2022-10-08T04:15:43.754Z,13.32
2022-10-08T04:20:43.644Z,13.43
2022-10-08T04:25:43.591Z,13.44
2022-10-08T04:30:43.611Z,13.44
2022-10-08T04:35:43.622Z,13.52
2022-10-08T04:40:43.373Z,13.55
2022-10-08T04:45:43.320Z,13.51
2022-10-08T04:50:43.270Z,13.52
2022-10-08T04:55:43.179Z,13.51
2022-10-08T05:00:43.152Z,13.54
2022-10-08T05:05:43.056Z,13.52
2022-10-08T05:10:43.015Z,13.58
2022-10-08T05:15:42.949Z,13.59
2022-10-08T05:20:42.871Z,13.59
2022-10-08T05:25:42.808Z,13.61
2022-10-08T05:30:42.735Z,13.51
2022-10-08T05:35:42.682Z,13.54
2022-10-08T05:40:42.768Z,13.49
2022-10-08T05:45:42.516Z,13.56
2022-10-08T05:50:42.472Z,13.65
2022-10-08T05:55:43.118Z,13.59
2022-10-08T06:00:42.339Z,13.62
2022-10-08T06:05:42.297Z,13.56
2022-10-08T06:10:42.268Z,13.62
2022-10-08T06:15:42.109Z,13.67
2022-10-08T06:20:42.052Z,13.77
2022-10-08T06:25:41.999Z,13.89
2022-10-08T06:30:41.920Z,13.96
2022-10-08T06:35:41.848Z,14.10
2022-10-08T06:40:41.780Z,14.09
2022-10-08T06:45:41.822Z,14.04
2022-10-08T06:50:41.662Z,14.07
2022-10-08T06:55:41.638Z,14.17
2022-10-08T07:00:41.658Z,14.25
2022-10-08T07:05:41.460Z,14.29
2022-10-08T07:10:41.525Z,14.31
2022-10-08T07:15:41.382Z,14.50
2022-10-08T07:20:41.264Z,14.78
2022-10-08T07:25:41.202Z,15.01
2022-10-08T07:30:41.126Z,15.33
2022-10-08T07:35:41.054Z,15.85
2022-10-08T07:40:41.022Z,16.45
2022-10-08T07:45:41.003Z,16.85
2022-10-08T07:50:40.888Z,17.22
2022-10-08T07:55:40.824Z,17.62
2022-10-08T08:00:41.041Z,17.74
2022-10-08T08:05:40.732Z,18.13
2022-10-08T08:10:40.659Z,18.21
2022-10-08T08:15:40.568Z,18.54
2022-10-08T08:20:40.553Z,18.79
2022-10-08T08:25:40.440Z,18.90
2022-10-08T08:30:40.645Z,19.29
2022-10-08T08:35:40.267Z,19.39
2022-10-08T08:40:40.633Z,19.11
2022-10-08T08:45:48.007Z,19.36
2022-10-08T08:50:43.541Z,18.79
2022-10-08T08:55:41.040Z,18.43
2022-10-08T09:00:40.039Z,18.29
2022-10-08T09:05:39.914Z,18.40
2022-10-08T09:10:39.832Z,18.83
2022-10-08T09:15:39.890Z,19.28
2022-10-08T09:20:40.461Z,19.58
2022-10-08T09:25:39.675Z,19.50
2022-10-08T09:30:39.662Z,19.21
2022-10-08T09:35:39.488Z,19.06
2022-10-08T09:40:39.445Z,19.01
2022-10-08T09:45:39.423Z,19.46
2022-10-08T09:50:39.293Z,19.53
2022-10-08T09:55:39.249Z,19.54
2022-10-08T10:00:39.165Z,19.11
2022-10-08T10:05:39.141Z,19.14
2022-10-08T10:10:39.084Z,18.83
2022-10-08T10:15:38.988Z,18.90
2022-10-08T10:20:38.893Z,18.84
2022-10-08T10:25:38.911Z,18.83
2022-10-08T10:30:38.840Z,18.65
2022-10-08T10:35:38.716Z,18.82
2022-10-08T10:40:38.686Z,19.08
2022-10-08T10:45:38.731Z,19.39
2022-10-08T10:50:38.602Z,19.47
2022-10-08T10:55:38.444Z,19.55
2022-10-08T11:00:38.488Z,19.78
2022-10-08T11:05:38.360Z,19.86
2022-10-08T11:10:38.229Z,19.83
2022-10-08T11:15:38.226Z,20.10
2022-10-08T11:20:38.134Z,20.05
2022-10-08T11:25:55.993Z,19.98
2022-10-08T11:30:39.018Z,20.15
2022-10-08T11:35:37.905Z,20.08
2022-10-08T11:40:37.919Z,20.18
2022-10-08T11:45:37.816Z,20.16
2022-10-08T11:50:37.725Z,20.09
2022-10-08T11:55:37.654Z,20.51
2022-10-08T12:00:37.592Z,19.76
2022-10-08T12:05:37.704Z,19.73
2022-10-08T12:10:37.517Z,19.93
2022-10-08T12:15:37.452Z,19.93
2022-10-08T12:20:37.367Z,19.29
2022-10-08T12:25:37.255Z,19.60
2022-10-08T12:30:37.215Z,19.48
2022-10-08T12:35:37.297Z,19.20
2022-10-08T12:40:37.141Z,18.90
2022-10-08T12:45:37.094Z,19.70
2022-10-08T12:50:37.006Z,20.03
2022-10-08T12:55:38.223Z,19.88
2022-10-08T13:00:36.870Z,19.80
2022-10-08T13:05:36.720Z,20.41
2022-10-08T13:10:36.851Z,19.97
2022-10-08T13:15:36.599Z,19.98
2022-10-08T13:20:36.542Z,19.54
2022-10-08T13:25:36.475Z,20.08
2022-10-08T13:30:36.422Z,20.10
2022-10-08T13:35:36.369Z,20.23
2022-10-08T13:40:36.284Z,19.70
2022-10-08T13:45:36.214Z,19.76
2022-10-08T13:50:36.141Z,19.43
2022-10-08T13:55:36.077Z,19.79
2022-10-08T14:00:36.034Z,19.15
2022-10-08T14:05:35.990Z,20.03
2022-10-08T14:10:35.877Z,19.50
2022-10-08T14:15:35.909Z,18.84
2022-10-08T14:20:35.859Z,18.86
2022-10-08T14:25:35.696Z,18.87
2022-10-08T14:30:35.616Z,17.91
2022-10-08T14:35:35.542Z,17.79
2022-10-08T14:40:35.482Z,18.28
2022-10-08T14:45:35.473Z,17.88
2022-10-08T14:50:35.371Z,17.76
2022-10-08T14:55:49.204Z,17.99
2022-10-08T15:00:36.299Z,17.66
2022-10-08T15:05:35.163Z,18.39
2022-10-08T15:10:35.130Z,18.09
2022-10-08T15:15:35.034Z,17.04
2022-10-08T15:20:35.016Z,16.74
2022-10-08T15:25:34.905Z,16.53
2022-10-08T15:30:34.919Z,16.31
2022-10-08T15:35:34.783Z,16.15
2022-10-08T15:40:34.743Z,15.96
2022-10-08T15:45:34.700Z,15.74
2022-10-08T15:50:34.592Z,15.51
2022-10-08T15:55:34.515Z,15.36
2022-10-08T16:00:37.952Z,15.23
2022-10-08T16:05:34.434Z,15.15
2022-10-08T16:10:34.317Z,15.06
2022-10-08T16:15:34.271Z,14.98
2022-10-08T16:20:34.234Z,14.87
2022-10-08T16:25:34.337Z,14.90
2022-10-08T16:30:34.731Z,14.84
2022-10-08T16:35:33.999Z,14.71
2022-10-08T16:40:33.949Z,14.47
2022-10-08T16:45:33.850Z,14.17
2022-10-08T16:50:33.810Z,13.92
2022-10-08T16:55:33.712Z,13.67
2022-10-08T17:00:33.741Z,13.46
2022-10-08T17:05:33.603Z,13.20
2022-10-08T17:10:33.587Z,13.15
2022-10-08T17:15:33.555Z,12.85
2022-10-08T17:20:33.495Z,12.81
2022-10-08T17:25:33.335Z,12.69
2022-10-08T17:30:33.463Z,12.54
2022-10-08T17:35:33.180Z,12.44
2022-10-08T17:40:33.132Z,12.49
2022-10-08T17:45:33.060Z,12.44
2022-10-08T17:50:40.106Z,12.37
2022-10-08T17:55:32.970Z,12.52
2022-10-08T18:00:32.867Z,12.51
2022-10-08T18:05:32.786Z,12.51
2022-10-08T18:10:33.806Z,12.45
2022-10-08T18:15:32.723Z,12.39
2022-10-08T18:20:32.753Z,12.42
2022-10-08T18:25:32.537Z,12.51
2022-10-08T18:30:32.455Z,12.45
2022-10-08T18:35:32.620Z,12.60
2022-10-08T18:40:32.375Z,12.87
2022-10-08T18:45:32.315Z,13.02
2022-10-08T18:50:32.198Z,12.81
2022-10-08T18:55:32.195Z,12.67
2022-10-08T19:00:32.067Z,12.51
2022-10-08T19:05:32.046Z,12.37
2022-10-08T19:10:32.017Z,12.23
2022-10-08T19:15:31.967Z,12.06
2022-10-08T19:20:31.853Z,11.93
2022-10-08T19:25:31.760Z,11.65
2022-10-08T19:30:32.894Z,11.56
2022-10-08T19:35:31.713Z,11.39
2022-10-08T19:40:31.920Z,11.38
2022-10-08T19:45:31.589Z,11.24
2022-10-08T19:50:31.423Z,11.25
2022-10-08T19:55:31.414Z,11.17
2022-10-08T20:00:32.377Z,11.07
2022-10-08T20:05:31.260Z,11.03
2022-10-08T20:10:31.161Z,10.84
2022-10-08T20:15:31.148Z,10.70
2022-10-08T20:20:33.594Z,10.46
2022-10-08T20:25:31.027Z,10.32
2022-10-08T20:30:30.891Z,10.26
2022-10-08T20:35:30.873Z,10.25
2022-10-08T20:40:30.797Z,10.21
2022-10-08T20:45:30.871Z,10.26
2022-10-08T20:50:30.661Z,10.25
2022-10-08T20:55:30.602Z,10.21
2022-10-08T21:00:30.535Z,10.21
2022-10-08T21:05:30.481Z,10.30
2022-10-08T21:10:30.370Z,10.19
2022-10-08T21:15:30.293Z,10.10
2022-10-08T21:20:30.231Z,9.93
2022-10-08T21:25:30.155Z,9.83
2022-10-08T21:30:30.102Z,9.79
2022-10-08T21:35:30.025Z,9.76
2022-10-08T21:40:29.972Z,9.60
2022-10-08T21:45:29.960Z,9.78
2022-10-08T21:50:32.953Z,9.93
2022-10-08T21:55:30.783Z,9.86
2022-10-08T22:00:29.766Z,9.79
2022-10-08T22:05:30.051Z,9.58
2022-10-08T22:10:31.240Z,9.78
2022-10-08T22:15:29.583Z,9.67
2022-10-08T22:20:29.475Z,9.48
2022-10-08T22:25:29.420Z,9.38
2022-10-08T22:30:29.276Z,9.21
2022-10-08T22:35:29.301Z,9.06
2022-10-08T22:40:29.264Z,8.99
2022-10-08T22:45:29.157Z,8.84
2022-10-08T22:50:29.092Z,8.83
2022-10-08T22:55:29.184Z,8.65
2022-10-08T23:00:28.952Z,8.68
2022-10-08T23:05:28.943Z,8.68
2022-10-08T23:10:28.847Z,8.68
2022-10-08T23:15:29.609Z,8.48
2022-10-08T23:20:28.634Z,8.40
2022-10-08T23:25:28.653Z,8.97
2022-10-08T23:30:42.497Z,8.71
2022-10-08T23:35:29.444Z,8.88
2022-10-08T23:40:28.375Z,8.60
2022-10-08T23:45:28.343Z,8.42
2022-10-08T23:50:28.246Z,8.75
2022-10-08T23:55:28.207Z,8.45
